createdAt,value
2018-03-18T00:00:42.573Z,91745.34
2018-03-18T00:03:09.207Z,91753.84
2018-03-18T00:05:35.678Z,91762.91
2018-03-18T00:08:02.867Z,91743.93
2018-03-18T00:10:29.579Z,91740.45
2018-03-18T00:12:56.167Z,91768.47
2018-03-18T00:15:22.604Z,91759.79
2018-03-18T00:17:49.229Z,91767.88
2018-03-18T00:20:15.724Z,91793.80
2018-03-18T00:22:42.145Z,91788.62
2018-03-18T00:25:08.996Z,91773.52
2018-03-18T00:27:35.353Z,91744.99
2018-03-18T00:30:01.907Z,91758.02
2018-03-18T00:32:28.336Z,91756.45
2018-03-18T00:34:55.632Z,91733.97
2018-03-18T00:37:22.216Z,91746.89
2018-03-18T00:39:48.647Z,91737.23
2018-03-18T00:42:15.082Z,91750.97
2018-03-18T00:44:41.519Z,91775.23
2018-03-18T00:47:08.096Z,91754.08
2018-03-18T00:49:34.439Z,91761.36
2018-03-18T00:52:01.029Z,91752.04
2018-03-18T00:54:27.469Z,91740.37
2018-03-18T00:56:54.073Z,91762.09
2018-03-18T00:59:20.466Z,91741.51
2018-03-18T01:01:47.004Z,91720.49
2018-03-18T01:04:13.389Z,91721.38
2018-03-18T01:06:39.804Z,91713.55
2018-03-18T01:09:06.219Z,91738.87
2018-03-18T01:11:32.682Z,91720.48
2018-03-18T01:13:59.182Z,91721.40
2018-03-18T01:16:25.583Z,91723.60
2018-03-18T01:18:52.143Z,91707.08
2018-03-18T01:21:18.706Z,91714.92
2018-03-18T01:23:45.067Z,91701.45
2018-03-18T01:26:11.466Z,91700.39
2018-03-18T01:28:37.855Z,91718.95
2018-03-18T01:31:04.365Z,91701.11
2018-03-18T01:33:30.982Z,91712.31
2018-03-18T01:35:57.410Z,91695.97
2018-03-18T01:38:23.925Z,91707.97
2018-03-18T01:40:50.287Z,91701.87
2018-03-18T01:43:19.393Z,91695.80
2018-03-18T01:45:48.904Z,91698.75
2018-03-18T01:48:17.847Z,91701.86
2018-03-18T01:50:47.465Z,91682.41
2018-03-18T01:53:23.221Z,91687.95
2018-03-18T01:55:53.642Z,91660.27
2018-03-18T01:58:21.663Z,91670.33
2018-03-18T02:00:50.231Z,91665.33
2018-03-18T02:03:20.562Z,91682.06
2018-03-18T02:05:49.105Z,91670.27
2018-03-18T02:08:16.413Z,91679.29
2018-03-18T02:10:45.769Z,91679.27
2018-03-18T02:13:13.825Z,91684.92
2018-03-18T02:15:42.529Z,91675.54
2018-03-18T02:18:12.186Z,91658.96
2018-03-18T02:20:42.875Z,91656.94
2018-03-18T02:23:10.433Z,91634.54
2018-03-18T02:25:37.365Z,91637.32
2018-03-18T02:28:03.717Z,91650.59
2018-03-18T02:30:30.022Z,91628.98
2018-03-18T02:32:56.475Z,91639.09
2018-03-18T02:35:22.844Z,91634.58
2018-03-18T02:37:49.185Z,91615.28
2018-03-18T02:40:15.531Z,91614.45
2018-03-18T02:42:41.845Z,91617.37
2018-03-18T02:45:08.156Z,91618.83
2018-03-18T02:47:34.521Z,91608.20
2018-03-18T02:50:00.892Z,91607.04
2018-03-18T02:52:27.605Z,91615.26
2018-03-18T02:54:53.986Z,91594.20
2018-03-18T02:57:20.327Z,91580.20
2018-03-18T02:59:46.706Z,91566.00
2018-03-18T03:02:13.410Z,91567.02
2018-03-18T03:04:40.127Z,91567.86
2018-03-18T03:07:06.507Z,91568.69
2018-03-18T03:09:32.866Z,91570.38
2018-03-18T03:11:59.330Z,91563.17
2018-03-18T03:14:25.676Z,91544.98
2018-03-18T03:16:52.028Z,91547.23
2018-03-18T03:19:18.384Z,91540.59
2018-03-18T03:21:44.937Z,91541.73
2018-03-18T03:24:11.245Z,91542.08
2018-03-18T03:26:37.775Z,91527.48
2018-03-18T03:29:04.130Z,91537.24
2018-03-18T03:31:30.599Z,91554.66
2018-03-18T03:33:56.957Z,91561.56
2018-03-18T03:36:23.278Z,91581.52
2018-03-18T03:38:49.642Z,91573.61
2018-03-18T03:41:16.036Z,91559.14
2018-03-18T03:43:42.393Z,91544.23
2018-03-18T03:46:08.743Z,91558.16
2018-03-18T03:48:35.095Z,91558.22
2018-03-18T03:51:01.432Z,91575.96
2018-03-18T03:53:28.489Z,91569.86
2018-03-18T03:55:54.874Z,91600.80
2018-03-18T03:58:21.186Z,91608.30
2018-03-18T04:00:47.490Z,91626.90
2018-03-18T04:03:14.059Z,91624.05
2018-03-18T04:05:40.496Z,91608.05
2018-03-18T04:08:06.900Z,91614.05
2018-03-18T04:10:33.315Z,91599.09
2018-03-18T04:12:59.737Z,91593.55
2018-03-18T04:15:26.134Z,91583.94
2018-03-18T04:17:52.590Z,91595.73
2018-03-18T04:20:18.941Z,91596.73
2018-03-18T04:22:45.340Z,91594.47
2018-03-18T04:25:11.719Z,91595.40
2018-03-18T04:27:38.095Z,91606.09
2018-03-18T04:30:04.484Z,91602.56
2018-03-18T04:32:30.939Z,91596.13
2018-03-18T04:34:57.349Z,91596.33
2018-03-18T04:37:23.980Z,91600.42
2018-03-18T04:39:50.354Z,91592.27
2018-03-18T04:42:16.717Z,91599.80
2018-03-18T04:44:43.167Z,91604.47
2018-03-18T04:47:09.597Z,91595.52
2018-03-18T04:49:36.001Z,91591.19
2018-03-18T04:52:02.447Z,91593.52
2018-03-18T04:54:28.822Z,91594.39
2018-03-18T04:56:55.193Z,91594.36
2018-03-18T04:59:21.503Z,91589.49
2018-03-18T05:01:47.900Z,91604.47
2018-03-18T05:04:14.214Z,91600.53
2018-03-18T05:06:40.538Z,91585.69
2018-03-18T05:09:06.969Z,91591.52
2018-03-18T05:11:33.357Z,91583.20
2018-03-18T05:13:59.749Z,91594.08
2018-03-18T05:16:26.126Z,91617.95
2018-03-18T05:18:52.642Z,91624.48
2018-03-18T05:21:19.468Z,91624.53
2018-03-18T05:23:45.996Z,91636.17
2018-03-18T05:26:12.393Z,91621.54
2018-03-18T05:28:38.764Z,91639.75
2018-03-18T05:31:05.184Z,91630.19
2018-03-18T05:33:31.549Z,91612.91
2018-03-18T05:35:57.923Z,91605.91
2018-03-18T05:38:24.390Z,91610.31
2018-03-18T05:40:50.768Z,91610.46
2018-03-18T05:43:17.164Z,91609.48
2018-03-18T05:45:43.581Z,91608.09
2018-03-18T05:48:09.974Z,91603.35
2018-03-18T05:50:36.312Z,91613.62
2018-03-18T05:53:02.749Z,91627.62
2018-03-18T05:55:29.047Z,91643.75
2018-03-18T05:57:55.388Z,91639.25
2018-03-18T06:00:22.370Z,91646.59
2018-03-18T06:02:48.832Z,91643.84
2018-03-18T06:05:15.181Z,91649.27
2018-03-18T06:07:41.538Z,91661.45
2018-03-18T06:10:08.778Z,91656.50
2018-03-18T06:12:35.206Z,91660.28
2018-03-18T06:15:01.693Z,91674.85
2018-03-18T06:17:28.058Z,91686.70
2018-03-18T06:19:54.461Z,91696.67
2018-03-18T06:22:20.881Z,91719.69
2018-03-18T06:24:47.229Z,91733.13
2018-03-18T06:27:14.499Z,91753.82
2018-03-18T06:29:41.298Z,91754.34
2018-03-18T06:32:08.372Z,91761.67
2018-03-18T06:34:34.807Z,91784.64
2018-03-18T06:37:01.260Z,91793.53
2018-03-18T06:39:27.637Z,91798.05
2018-03-18T06:41:54.150Z,91802.85
2018-03-18T06:44:20.624Z,91807.50
2018-03-18T06:46:47.022Z,91800.48
2018-03-18T06:49:13.462Z,91821.80
2018-03-18T06:51:39.920Z,91817.95
2018-03-18T06:54:06.310Z,91829.48
2018-03-18T06:56:32.797Z,91837.20
2018-03-18T06:58:59.243Z,91833.92
2018-03-18T07:01:25.762Z,91831.06
2018-03-18T07:03:52.415Z,91825.03
2018-03-18T07:06:19.236Z,91825.81
2018-03-18T07:08:45.612Z,91835.28
2018-03-18T07:11:11.983Z,91846.94
2018-03-18T07:13:38.453Z,91846.22
2018-03-18T07:16:05.742Z,91845.24
2018-03-18T07:18:32.112Z,91825.42
2018-03-18T07:20:58.462Z,91821.52
2018-03-18T07:23:25.047Z,91832.99
2018-03-18T07:25:52.094Z,91832.36
2018-03-18T07:28:19.529Z,91841.33
2018-03-18T07:30:46.293Z,91850.38
2018-03-18T07:33:13.239Z,91844.91
2018-03-18T07:35:40.084Z,91844.58
2018-03-18T07:38:06.791Z,91850.10
2018-03-18T07:40:33.436Z,91848.21
2018-03-18T07:43:02.192Z,91845.98
2018-03-18T07:45:28.762Z,91849.70
2018-03-18T07:47:55.408Z,91856.69
2018-03-18T07:50:22.501Z,91860.34
2018-03-18T07:52:49.089Z,91862.09
2018-03-18T07:55:15.602Z,91853.46
2018-03-18T07:57:42.918Z,91841.62
2018-03-18T08:00:09.764Z,91844.82
2018-03-18T08:02:37.343Z,91839.61
2018-03-18T08:05:03.840Z,91838.43
2018-03-18T08:07:31.338Z,91850.72
2018-03-18T08:09:57.821Z,91859.05
2018-03-18T08:12:24.441Z,91854.33
2018-03-18T08:14:51.550Z,91855.70
2018-03-18T08:17:18.127Z,91865.55
2018-03-18T08:19:44.686Z,91866.08
2018-03-18T08:22:14.958Z,91866.48
2018-03-18T08:24:41.785Z,91872.03
2018-03-18T08:27:08.486Z,91883.80
2018-03-18T08:29:35.430Z,91878.19
2018-03-18T08:32:02.718Z,91873.56
2018-03-18T08:34:29.919Z,91867.01
2018-03-18T08:36:56.488Z,91867.11
2018-03-18T08:39:23.880Z,91856.79
2018-03-18T08:41:50.721Z,91853.05
2018-03-18T08:44:18.923Z,91835.04
2018-03-18T08:46:45.800Z,91816.66
2018-03-18T08:49:12.383Z,91816.13
2018-03-18T08:51:39.641Z,91840.35
2018-03-18T08:54:08.544Z,91843.75
2018-03-18T08:56:35.956Z,91839.30
2018-03-18T08:59:03.700Z,91851.02
2018-03-18T09:01:30.269Z,91842.69
2018-03-18T09:03:57.190Z,91841.19
2018-03-18T09:06:23.826Z,91843.57
2018-03-18T09:08:50.335Z,91850.23
2018-03-18T09:11:16.903Z,91849.34
2018-03-18T09:13:43.670Z,91845.98
2018-03-18T09:16:10.727Z,91846.39
2018-03-18T09:18:37.722Z,91829.52
2018-03-18T09:21:04.361Z,91806.76
2018-03-18T09:23:30.971Z,91801.59
2018-03-18T09:25:57.637Z,91817.39
2018-03-18T09:28:24.220Z,91827.52
2018-03-18T09:30:50.854Z,91821.75
2018-03-18T09:33:17.371Z,91824.47
2018-03-18T09:35:43.899Z,91829.58
2018-03-18T09:38:10.591Z,91817.61
2018-03-18T09:40:37.448Z,91817.08
2018-03-18T09:43:04.145Z,91819.09
2018-03-18T09:45:30.749Z,91810.52
2018-03-18T09:47:57.466Z,91831.91
2018-03-18T09:50:24.044Z,91826.36
2018-03-18T09:52:50.663Z,91798.47
2018-03-18T09:55:17.403Z,91823.84
2018-03-18T09:57:44.172Z,91848.11
2018-03-18T10:00:10.765Z,91845.68
2018-03-18T10:02:37.811Z,91845.77
2018-03-18T10:05:05.019Z,91853.04
2018-03-18T10:07:31.588Z,91836.36
2018-03-18T10:09:58.080Z,91836.36
2018-03-18T10:12:24.811Z,91833.22
2018-03-18T10:14:51.363Z,91834.52
2018-03-18T10:17:17.885Z,91836.67
2018-03-18T10:19:44.668Z,91840.48
2018-03-18T10:22:11.616Z,91834.03
2018-03-18T10:24:40.332Z,91834.30
2018-03-18T10:27:06.865Z,91841.42
2018-03-18T10:29:33.672Z,91841.78
2018-03-18T10:32:00.229Z,91834.38
2018-03-18T10:34:26.828Z,91844.52
2018-03-18T10:36:53.865Z,91861.47
2018-03-18T10:39:20.433Z,91862.64
2018-03-18T10:41:46.973Z,91861.97
2018-03-18T10:44:13.856Z,91864.73
2018-03-18T10:46:40.508Z,91874.31
2018-03-18T10:51:41.954Z,91874.89
2018-03-18T10:54:08.569Z,91887.44
2018-03-18T10:56:35.245Z,91891.06
2018-03-18T10:59:01.962Z,91892.69
2018-03-18T11:01:33.844Z,91896.80
2018-03-18T11:04:06.784Z,91887.90
2018-03-18T11:06:33.377Z,91874.94
2018-03-18T11:09:00.965Z,91871.11
2018-03-18T11:11:27.787Z,91881.32
2018-03-18T11:13:54.773Z,91881.87
2018-03-18T11:16:21.880Z,91881.40
2018-03-18T11:18:48.529Z,91872.77
2018-03-18T11:21:15.114Z,91879.92
2018-03-18T11:23:42.206Z,91876.84
2018-03-18T11:26:09.112Z,91872.19
2018-03-18T11:28:35.786Z,91876.64
2018-03-18T11:31:02.585Z,91874.48
2018-03-18T11:33:30.467Z,91874.66
2018-03-18T11:35:57.126Z,91878.08
2018-03-18T11:38:23.885Z,91889.47
2018-03-18T11:40:50.847Z,91883.09
2018-03-18T11:43:17.657Z,91884.09
2018-03-18T11:45:44.525Z,91881.22
2018-03-18T11:48:11.577Z,91882.20
2018-03-18T11:50:39.234Z,91883.92
2018-03-18T11:53:06.082Z,91891.64
2018-03-18T11:55:32.765Z,91891.81
2018-03-18T11:57:59.275Z,91888.26
2018-03-18T12:00:26.010Z,91878.05
2018-03-18T12:02:53.244Z,91883.09
2018-03-18T12:05:19.991Z,91886.34
2018-03-18T12:07:46.662Z,91874.78
2018-03-18T12:10:13.375Z,91865.50
2018-03-18T12:12:41.151Z,91869.37
2018-03-18T12:15:07.849Z,91873.31
2018-03-18T12:17:34.725Z,91872.91
2018-03-18T12:20:01.183Z,91877.13
2018-03-18T12:22:27.880Z,91877.72
2018-03-18T12:24:54.745Z,91875.77
2018-03-18T12:27:21.240Z,91868.70
2018-03-18T12:29:48.045Z,91859.04
2018-03-18T12:32:14.938Z,91855.48
2018-03-18T12:34:43.184Z,91856.15
2018-03-18T12:37:10.145Z,91850.91
2018-03-18T12:39:49.159Z,91845.48
2018-03-18T12:42:27.959Z,91850.55
2018-03-18T12:44:55.497Z,91858.48
2018-03-18T12:47:22.567Z,91859.08
2018-03-18T12:49:49.304Z,91855.02
2018-03-18T12:52:16.251Z,91862.56
2018-03-18T12:54:43.930Z,91866.73
2018-03-18T12:57:10.984Z,91867.98
2018-03-18T12:59:40.629Z,91874.17
2018-03-18T13:02:11.553Z,91881.41
2018-03-18T13:04:39.838Z,91890.91
2018-03-18T13:07:06.954Z,91891.52
2018-03-18T13:09:34.254Z,91897.20
2018-03-18T13:12:01.362Z,91898.47
2018-03-18T13:14:28.108Z,91895.95
2018-03-18T13:16:55.363Z,91899.02
2018-03-18T13:19:22.611Z,91908.78
2018-03-18T13:21:49.759Z,91907.70
2018-03-18T13:24:17.030Z,91912.66
2018-03-18T13:26:45.294Z,91921.69
2018-03-18T13:29:12.859Z,91926.02
2018-03-18T13:31:39.716Z,91928.31
2018-03-18T13:34:06.842Z,91939.98
2018-03-18T13:36:33.892Z,91940.58
2018-03-18T13:39:02.195Z,91950.98
2018-03-18T13:41:29.707Z,91952.51
2018-03-18T13:43:57.015Z,91953.38
2018-03-18T13:46:24.436Z,91957.77
2018-03-18T13:48:51.685Z,91954.91
2018-03-18T13:51:20.153Z,91969.42
2018-03-18T13:53:47.529Z,91973.03
2018-03-18T13:56:14.604Z,91959.98
2018-03-18T13:58:41.827Z,91963.41
2018-03-18T14:01:09.206Z,91966.02
2018-03-18T14:03:36.146Z,91972.94
2018-03-18T14:06:03.771Z,91965.87
2018-03-18T14:08:30.941Z,91967.59
2018-03-18T14:10:59.690Z,91966.60
2018-03-18T14:13:27.376Z,91979.48
2018-03-18T14:15:56.194Z,91983.90
2018-03-18T14:18:23.999Z,91989.27
2018-03-18T14:20:51.214Z,91986.38
2018-03-18T14:23:18.040Z,91999.91
2018-03-18T14:25:45.630Z,91990.44
2018-03-18T14:28:13.478Z,91998.37
2018-03-18T14:30:40.728Z,91989.50
2018-03-18T14:33:08.350Z,91996.70
2018-03-18T14:35:37.083Z,92000.06
2018-03-18T14:38:05.051Z,91998.19
2018-03-18T14:40:32.499Z,92000.45
2018-03-18T14:43:00.048Z,92000.10
2018-03-18T14:45:27.970Z,92000.42
2018-03-18T14:47:55.643Z,92010.07
2018-03-18T14:50:23.669Z,92002.48
2018-03-18T14:52:51.752Z,91996.72
2018-03-18T14:55:18.692Z,92001.86
2018-03-18T14:57:45.933Z,92011.45
2018-03-18T15:00:13.119Z,92022.17
2018-03-18T15:02:40.238Z,92029.28
2018-03-18T15:05:08.124Z,92019.81
2018-03-18T15:07:35.370Z,92021.41
2018-03-18T15:10:01.972Z,92027.35
2018-03-18T15:12:28.615Z,92030.34
2018-03-18T15:14:55.373Z,92038.00
2018-03-18T15:17:22.135Z,92040.91
2018-03-18T15:19:48.862Z,92056.28
2018-03-18T15:22:15.501Z,92053.84
2018-03-18T15:24:42.480Z,92052.94
2018-03-18T15:27:09.086Z,92049.91
2018-03-18T15:29:35.832Z,92049.42
2018-03-18T15:32:02.473Z,92051.84
2018-03-18T15:34:29.303Z,92054.95
2018-03-18T15:36:56.450Z,92054.05
2018-03-18T15:39:23.166Z,92053.88
2018-03-18T15:41:49.604Z,92049.97
2018-03-18T15:44:16.386Z,92044.22
2018-03-18T15:46:43.008Z,92053.11
2018-03-18T15:49:09.752Z,92048.47
2018-03-18T15:51:36.606Z,92051.06
2018-03-18T15:54:03.424Z,92061.20
2018-03-18T15:56:30.029Z,92065.84
2018-03-18T15:58:56.749Z,92068.77
2018-03-18T16:01:23.860Z,92069.44
2018-03-18T16:03:50.530Z,92070.73
2018-03-18T16:06:17.222Z,92066.20
2018-03-18T16:08:43.867Z,92070.50
2018-03-18T16:11:10.336Z,92081.54
2018-03-18T16:13:36.751Z,92084.44
2018-03-18T16:16:03.542Z,92087.66
2018-03-18T16:18:30.032Z,92082.17
2018-03-18T16:20:56.545Z,92085.53
2018-03-18T16:23:23.143Z,92082.84
2018-03-18T16:25:49.610Z,92088.10
2018-03-18T16:28:16.103Z,92088.51
2018-03-18T16:30:55.002Z,92083.22
2018-03-18T16:33:21.587Z,92075.50
2018-03-18T16:35:48.259Z,92080.45
2018-03-18T16:38:14.783Z,92081.50
2018-03-18T16:40:41.232Z,92080.92
2018-03-18T16:43:07.746Z,92094.05
2018-03-18T16:45:35.016Z,92094.66
2018-03-18T16:48:02.108Z,92103.53
2018-03-18T16:50:29.126Z,92100.62
2018-03-18T16:52:56.272Z,92105.11
2018-03-18T16:55:24.407Z,92109.70
2018-03-18T16:57:51.638Z,92110.41
2018-03-18T17:00:18.810Z,92113.18
2018-03-18T17:02:46.587Z,92113.81
2018-03-18T17:05:13.725Z,92117.06
2018-03-18T17:07:40.969Z,92117.84
2018-03-18T17:10:08.016Z,92116.66
2018-03-18T17:12:34.981Z,92124.82
2018-03-18T17:15:02.112Z,92129.18
2018-03-18T17:17:29.373Z,92130.09
2018-03-18T17:19:56.920Z,92135.97
2018-03-18T17:22:24.169Z,92138.61
2018-03-18T17:24:51.696Z,92133.84
2018-03-18T17:27:19.681Z,92138.91
2018-03-18T17:29:47.194Z,92136.33
2018-03-18T17:32:14.414Z,92138.21
2018-03-18T17:34:42.504Z,92133.08
2018-03-18T17:37:10.171Z,92136.21
2018-03-18T17:39:37.416Z,92135.02
2018-03-18T17:42:05.277Z,92139.61
2018-03-18T17:44:45.030Z,92149.19
2018-03-18T17:47:24.452Z,92146.37
2018-03-18T17:50:04.033Z,92160.48
2018-03-18T17:52:44.663Z,92157.02
2018-03-18T17:55:25.447Z,92151.37
2018-03-18T17:57:53.302Z,92156.92
2018-03-18T18:00:20.763Z,92154.25
2018-03-18T18:02:48.066Z,92157.83
2018-03-18T18:05:15.166Z,92164.26
2018-03-18T18:07:42.218Z,92156.64
2018-03-18T18:10:09.696Z,92169.54
2018-03-18T18:12:37.437Z,92171.65
2018-03-18T18:15:04.694Z,92171.94
2018-03-18T18:17:32.856Z,92169.74
2018-03-18T18:20:00.436Z,92171.20
2018-03-18T18:22:27.888Z,92177.98
2018-03-18T18:24:55.968Z,92181.80
2018-03-18T18:27:23.614Z,92186.09
2018-03-18T18:29:50.970Z,92189.45
2018-03-18T18:32:18.430Z,92194.52
2018-03-18T18:34:45.684Z,92184.97
2018-03-18T18:37:13.342Z,92194.25
2018-03-18T18:39:40.499Z,92194.50
2018-03-18T18:42:07.875Z,92197.27
2018-03-18T18:44:35.226Z,92212.44
2018-03-18T18:47:03.136Z,92215.02
2018-03-18T18:49:30.539Z,92224.30
2018-03-18T18:51:58.511Z,92223.38
2018-03-18T18:54:26.886Z,92211.31
2018-03-18T18:56:54.343Z,92208.62
2018-03-18T18:59:21.896Z,92196.89
2018-03-18T19:01:49.500Z,92203.77
2018-03-18T19:04:17.036Z,92213.63
2018-03-18T19:06:44.756Z,92209.22
2018-03-18T19:09:12.661Z,92211.75
2018-03-18T19:11:40.124Z,92202.95
2018-03-18T19:14:07.486Z,92208.46
2018-03-18T19:16:34.836Z,92218.89
2018-03-18T19:19:02.179Z,92220.83
2018-03-18T19:21:29.234Z,92225.87
2018-03-18T19:23:57.509Z,92218.63
2018-03-18T19:26:24.664Z,92214.95
2018-03-18T19:28:51.811Z,92217.61
2018-03-18T19:31:19.163Z,92223.97
2018-03-18T19:33:46.233Z,92231.75
2018-03-18T19:36:13.562Z,92237.39
2018-03-18T19:38:40.713Z,92243.34
2018-03-18T19:41:07.970Z,92241.54
2018-03-18T19:43:34.981Z,92244.39
2018-03-18T19:46:02.163Z,92247.59
2018-03-18T19:48:29.426Z,92254.36
2018-03-18T19:50:56.770Z,92260.66
2018-03-18T19:53:24.170Z,92259.50
2018-03-18T19:55:51.680Z,92262.73
2018-03-18T19:58:18.641Z,92261.78
2018-03-18T20:00:45.917Z,92270.72
2018-03-18T20:03:13.248Z,92271.37
2018-03-18T20:05:55.555Z,92268.81
2018-03-18T20:08:22.833Z,92276.33
2018-03-18T20:10:51.175Z,92278.23
2018-03-18T20:13:19.097Z,92276.61
2018-03-18T20:15:47.536Z,92277.45
2018-03-18T20:18:16.160Z,92275.41
2018-03-18T20:20:45.720Z,92261.59
2018-03-18T20:23:14.922Z,92270.24
2018-03-18T20:25:42.483Z,92271.98
2018-03-18T20:28:09.749Z,92283.20
2018-03-18T20:30:36.986Z,92276.98
2018-03-18T20:33:04.626Z,92275.86
2018-03-18T20:35:32.008Z,92275.66
2018-03-18T20:38:00.433Z,92272.83
2018-03-18T20:40:27.487Z,92278.38
2018-03-18T20:42:54.581Z,92278.95
2018-03-18T20:45:21.733Z,92277.45
2018-03-18T20:47:48.788Z,92273.37
2018-03-18T20:50:15.927Z,92279.84
2018-03-18T20:52:43.516Z,92275.62
2018-03-18T20:55:10.753Z,92276.81
2018-03-18T20:57:39.041Z,92269.86
2018-03-18T21:00:06.076Z,92281.11
2018-03-18T21:02:32.911Z,92283.25
2018-03-18T21:04:59.848Z,92281.98
2018-03-18T21:07:26.587Z,92273.79
2018-03-18T21:09:53.428Z,92276.92
2018-03-18T21:12:20.527Z,92282.70
2018-03-18T21:14:47.316Z,92284.04
2018-03-18T21:17:14.384Z,92282.39
2018-03-18T21:19:41.204Z,92284.89
2018-03-18T21:22:07.718Z,92288.09
2018-03-18T21:24:34.360Z,92288.91
2018-03-18T21:27:00.763Z,92283.12
2018-03-18T21:29:27.440Z,92281.16
2018-03-18T21:31:55.325Z,92282.71
2018-03-18T21:34:34.479Z,92281.78
2018-03-18T21:37:01.050Z,92292.86
2018-03-18T21:39:27.446Z,92290.75
2018-03-18T21:41:54.146Z,92287.34
2018-03-18T21:44:20.790Z,92300.16
2018-03-18T21:46:47.428Z,92299.22
2018-03-18T21:49:13.955Z,92301.80
2018-03-18T21:51:40.939Z,92297.42
2018-03-18T21:54:07.650Z,92302.59
2018-03-18T21:56:34.588Z,92293.09
2018-03-18T21:59:01.309Z,92303.33
2018-03-18T22:01:27.728Z,92301.50
2018-03-18T22:03:54.219Z,92299.48
2018-03-18T22:06:20.732Z,92294.47
2018-03-18T22:08:47.378Z,92299.32
2018-03-18T22:11:13.903Z,92298.20
2018-03-18T22:13:40.447Z,92290.63
2018-03-18T22:16:07.186Z,92292.63
2018-03-18T22:18:33.614Z,92298.55
2018-03-18T22:20:59.962Z,92293.04
2018-03-18T22:23:26.490Z,92287.81
2018-03-18T22:25:53.347Z,92279.09
2018-03-18T22:28:19.740Z,92286.80
2018-03-18T22:30:46.100Z,92286.01
2018-03-18T22:33:13.033Z,92279.56
2018-03-18T22:35:39.473Z,92277.14
2018-03-18T22:38:05.858Z,92283.02
2018-03-18T22:40:32.278Z,92284.94
2018-03-18T22:42:58.985Z,92279.03
2018-03-18T22:45:25.480Z,92278.47
2018-03-18T22:47:52.051Z,92287.41
2018-03-18T22:50:18.450Z,92278.70
2018-03-18T22:52:44.923Z,92285.61
2018-03-18T22:55:11.664Z,92282.74
2018-03-18T22:57:37.977Z,92288.37
2018-03-18T23:00:04.383Z,92286.80
2018-03-18T23:02:30.748Z,92282.06
2018-03-18T23:04:57.847Z,92284.50
2018-03-18T23:07:24.757Z,92281.45
2018-03-18T23:09:51.909Z,92284.61
2018-03-18T23:12:18.609Z,92288.71
2018-03-18T23:14:45.502Z,92284.01
2018-03-18T23:17:12.715Z,92281.06
2018-03-18T23:19:39.586Z,92278.47
2018-03-18T23:22:06.641Z,92285.77
2018-03-18T23:24:33.784Z,92279.52
2018-03-18T23:27:00.625Z,92274.56
2018-03-18T23:29:27.157Z,92268.88
2018-03-18T23:31:55.043Z,92267.88
2018-03-18T23:34:21.642Z,92268.19
2018-03-18T23:36:48.197Z,92260.77
2018-03-18T23:39:14.612Z,92264.52
2018-03-18T23:41:41.784Z,92265.52
2018-03-18T23:44:08.429Z,92265.84
2018-03-18T23:46:35.026Z,92270.28
2018-03-18T23:49:01.491Z,92275.73
2018-03-18T23:51:28.041Z,92282.11
2018-03-18T23:53:54.387Z,92283.74
2018-03-18T23:56:20.903Z,92291.30
2018-03-18T23:58:47.225Z,92306.78
